Time;durP1;ratioP1;P1;durP2;ratioP2;P2;SDS_P1;SDS_P2;PMS_P1;PMS_P2;Temp;Humidity;BMP_temperature;BMP_pressure;BME280_temperature;BME280_humidity;BME280_pressure;Samples;Min_cycle;Max_cycle;Signal;HPM_P1;HPM_P2
2022/08/05 00:00:17;;;;;;;6.13;1.55;;;;;;;;;;5054306;28;20041;-73
2022/08/05 00:02:47;;;;;;;3.45;1.67;;;;;;;;;;5056153;28;20142;-73
2022/08/05 00:05:13;;;;;;;5.03;1.80;;;;;;;;;;5063477;28;20032;-73
2022/08/05 00:07:39;;;;;;;4.28;1.30;;;;;;;;;;5060175;28;20461;-73
2022/08/05 00:10:05;;;;;;;3.22;1.73;;;;;;;;;;5054793;28;20040;-73
2022/08/05 00:12:31;;;;;;;3.75;1.40;;;;;;;;;;5062873;28;20028;-73
2022/08/05 00:14:57;;;;;;;3.97;1.58;;;;;;;;;;5059818;28;20028;-73
2022/08/05 00:17:23;;;;;;;3.80;1.60;;;;;;;;;;5063565;28;20040;-73
2022/08/05 00:19:49;;;;;;;4.40;1.70;;;;;;;;;;5059975;28;20110;-73
2022/08/05 00:22:15;;;;;;;3.13;1.48;;;;;;;;;;5041094;28;20552;-73
2022/08/05 00:24:41;;;;;;;4.00;1.65;;;;;;;;;;5059970;28;20139;-73
2022/08/05 00:27:07;;;;;;;4.15;1.38;;;;;;;;;;5058337;28;20040;-73
2022/08/05 00:29:33;;;;;;;2.78;1.55;;;;;;;;;;5062787;28;20082;-73
2022/08/05 00:32:00;;;;;;;2.35;1.40;;;;;;;;;;5045120;28;20490;-73
2022/08/05 00:34:26;;;;;;;3.40;1.70;;;;;;;;;;5060886;28;20032;-73
2022/08/05 00:36:52;;;;;;;2.53;1.40;;;;;;;;;;5057048;28;20124;-73
2022/08/05 00:39:18;;;;;;;5.28;1.75;;;;;;;;;;5057261;28;20032;-73
2022/08/05 00:41:46;;;;;;;3.67;1.70;;;;;;;;;;5061413;28;20910;-73
2022/08/05 00:44:12;;;;;;;4.82;1.73;;;;;;;;;;5057637;28;20060;-73
2022/08/05 00:46:38;;;;;;;4.18;1.38;;;;;;;;;;5042022;28;20128;-73
2022/08/05 00:49:04;;;;;;;2.55;1.40;;;;;;;;;;5059836;28;20028;-73
2022/08/05 00:51:30;;;;;;;4.35;1.30;;;;;;;;;;5066453;28;20449;-73
2022/08/05 00:53:56;;;;;;;2.75;1.38;;;;;;;;;;5064892;28;20068;-73
2022/08/05 00:56:22;;;;;;;3.17;1.50;;;;;;;;;;5066651;28;20044;-73
2022/08/05 00:58:48;;;;;;;3.28;1.58;;;;;;;;;;5060047;28;20067;-73
2022/08/05 01:01:14;;;;;;;5.28;1.70;;;;;;;;;;5063416;28;20041;-73
2022/08/05 01:03:42;;;;;;;2.95;1.50;;;;;;;;;;5062452;28;20032;-73
2022/08/05 01:06:09;;;;;;;6.43;1.75;;;;;;;;;;5063951;28;20028;-73
2022/08/05 01:08:35;;;;;;;3.47;1.30;;;;;;;;;;5063423;28;20485;-73
2022/08/05 01:11:06;;;;;;;2.63;1.50;;;;;;;;;;5066481;28;20037;-73
2022/08/05 01:13:51;;;;;;;2.90;1.40;;;;;;;;;;5058538;28;20135;-73
2022/08/05 01:16:30;;;;;;;6.40;1.95;;;;;;;;;;5063250;28;20044;-73
2022/08/05 01:18:58;;;;;;;6.85;1.63;;;;;;;;;;5060307;28;20041;-73
2022/08/05 01:21:28;;;;;;;5.50;1.60;;;;;;;;;;5063552;28;20811;-73
2022/08/05 01:24:06;;;;;;;3.60;1.25;;;;;;;;;;5058531;28;20029;-73
2022/08/05 01:26:32;;;;;;;4.43;1.73;;;;;;;;;;5063456;28;20056;-73
2022/08/05 01:29:02;;;;;;;3.65;1.60;;;;;;;;;;5047814;28;20020;-73
2022/08/05 01:31:40;;;;;;;4.18;1.75;;;;;;;;;;5059591;28;20033;-73
2022/08/05 01:34:24;;;;;;;3.22;1.45;;;;;;;;;;5062346;28;20017;-73
2022/08/05 01:36:53;;;;;;;8.13;3.20;;;;;;;;;;5058492;28;20142;-73
2022/08/05 01:39:19;;;;;;;3.75;2.05;;;;;;;;;;5064917;28;20136;-73
2022/08/05 01:41:47;;;;;;;3.65;1.50;;;;;;;;;;5066511;28;20042;-73
2022/08/05 01:44:14;;;;;;;4.53;1.40;;;;;;;;;;5067323;28;20074;-73
2022/08/05 01:46:40;;;;;;;4.25;1.60;;;;;;;;;;5061370;28;20037;-73
2022/08/05 01:49:10;;;;;;;5.75;2.15;;;;;;;;;;5063381;28;20028;-73
2022/08/05 01:51:36;;;;;;;4.38;1.75;;;;;;;;;;5058575;28;20036;-73
2022/08/05 01:54:04;;;;;;;5.25;1.95;;;;;;;;;;5060808;28;20517;-73
2022/08/05 01:56:33;;;;;;;2.88;1.88;;;;;;;;;;5059685;28;20075;-73
2022/08/05 01:59:00;;;;;;;2.80;1.40;;;;;;;;;;5062008;28;20111;-73
2022/08/05 02:01:27;;;;;;;8.32;1.65;;;;;;;;;;5056594;28;20395;-73
2022/08/05 02:03:55;;;;;;;4.38;1.67;;;;;;;;;;5064196;28;20028;-73
2022/08/05 02:06:21;;;;;;;5.05;2.20;;;;;;;;;;5059324;28;20042;-73
2022/08/05 02:08:47;;;;;;;2.95;1.58;;;;;;;;;;5064689;28;20751;-73
2022/08/05 02:11:15;;;;;;;4.68;1.70;;;;;;;;;;5061975;28;20122;-73
2022/08/05 02:14:00;;;;;;;3.42;1.50;;;;;;;;;;5063322;28;20410;-73
2022/08/05 02:16:32;;;;;;;4.97;1.77;;;;;;;;;;5062565;28;20040;-73
2022/08/05 02:19:00;;;;;;;2.78;1.80;;;;;;;;;;5059681;28;20066;-73
2022/08/05 02:21:53;;;;;;;4.15;1.55;;;;;;;;;;5062002;28;20131;-73
2022/08/05 02:24:20;;;;;;;5.25;1.80;;;;;;;;;;5040100;28;20041;-73
2022/08/05 02:26:48;;;;;;;3.38;1.65;;;;;;;;;;5063260;28;20119;-73
2022/08/05 02:29:16;;;;;;;3.72;1.60;;;;;;;;;;5060257;28;20371;-74
2022/08/05 02:31:44;;;;;;;3.85;1.55;;;;;;;;;;5057656;28;20032;-73
2022/08/05 02:34:13;;;;;;;3.85;2.00;;;;;;;;;;5064173;28;20059;-73
2022/08/05 02:36:42;;;;;;;3.00;1.60;;;;;;;;;;5047304;28;20481;-73
2022/08/05 02:39:09;;;;;;;3.03;1.50;;;;;;;;;;5063584;28;20033;-73
2022/08/05 02:41:35;;;;;;;5.22;1.67;;;;;;;;;;5063668;28;20036;-73
2022/08/05 02:44:02;;;;;;;3.50;2.00;;;;;;;;;;5058451;28;20528;-73
2022/08/05 02:46:28;;;;;;;4.25;1.95;;;;;;;;;;5063071;28;20036;-73
2022/08/05 02:48:55;;;;;;;3.60;1.70;;;;;;;;;;5062109;28;20107;-73
2022/08/05 02:51:22;;;;;;;5.65;1.77;;;;;;;;;;5062712;28;20045;-73
2022/08/05 02:53:49;;;;;;;3.75;1.50;;;;;;;;;;5061162;28;20039;-73
2022/08/05 02:56:15;;;;;;;4.65;1.50;;;;;;;;;;5061983;28;20036;-73
2022/08/05 02:58:42;;;;;;;3.85;1.70;;;;;;;;;;5053902;28;21025;-73
2022/08/05 03:01:14;;;;;;;3.50;1.80;;;;;;;;;;5061464;28;20490;-73
2022/08/05 03:03:40;;;;;;;5.65;2.38;;;;;;;;;;5063065;28;20214;-73
2022/08/05 03:06:07;;;;;;;3.03;1.63;;;;;;;;;;5060133;28;20037;-73
2022/08/05 03:08:34;;;;;;;4.28;1.90;;;;;;;;;;5062831;28;20058;-73
2022/08/05 03:11:00;;;;;;;10.30;3.35;;;;;;;;;;5058780;28;20043;-73
2022/08/05 03:13:26;;;;;;;6.93;2.83;;;;;;;;;;5061171;28;20106;-73
2022/08/05 03:15:52;;;;;;;4.25;2.35;;;;;;;;;;5059539;28;20053;-73
2022/08/05 03:18:18;;;;;;;5.18;2.40;;;;;;;;;;5056596;28;20033;-73
2022/08/05 03:20:44;;;;;;;5.28;2.20;;;;;;;;;;5060751;28;20466;-73
2022/08/05 03:23:11;;;;;;;5.22;1.83;;;;;;;;;;5047879;28;20033;-73
2022/08/05 03:25:38;;;;;;;4.45;1.90;;;;;;;;;;5060735;28;20036;-73
2022/08/05 03:28:05;;;;;;;5.20;1.95;;;;;;;;;;5059072;28;20544;-73
2022/08/05 03:30:32;;;;;;;3.75;2.35;;;;;;;;;;5043436;28;20036;-73
2022/08/05 03:32:59;;;;;;;4.03;2.13;;;;;;;;;;5056305;28;20125;-73
2022/08/05 03:35:25;;;;;;;4.25;1.88;;;;;;;;;;5062600;28;20028;-73
2022/08/05 03:37:51;;;;;;;4.55;2.08;;;;;;;;;;5062354;28;20109;-73
2022/08/05 03:40:17;;;;;;;3.80;1.80;;;;;;;;;;5062528;28;20095;-73
2022/08/05 03:42:43;;;;;;;3.70;1.65;;;;;;;;;;5065062;28;20048;-73
2022/08/05 03:45:09;;;;;;;4.53;1.85;;;;;;;;;;5064827;28;20035;-73
2022/08/05 03:47:35;;;;;;;5.45;1.60;;;;;;;;;;5063507;28;20045;-73
2022/08/05 03:50:01;;;;;;;4.75;1.75;;;;;;;;;;5059889;28;20114;-73
2022/08/05 03:52:29;;;;;;;5.82;2.40;;;;;;;;;;5060792;28;20057;-73
2022/08/05 03:55:09;;;;;;;4.63;2.20;;;;;;;;;;5057747;28;20877;-73
2022/08/05 03:57:36;;;;;;;5.18;2.42;;;;;;;;;;5060888;28;20036;-73
2022/08/05 04:00:07;;;;;;;6.18;1.83;;;;;;;;;;5062506;28;20032;-73
2022/08/05 04:02:34;;;;;;;2.60;1.58;;;;;;;;;;5055340;28;20040;-73
2022/08/05 04:05:01;;;;;;;5.05;2.00;;;;;;;;;;5064816;28;20111;-73
2022/08/05 04:07:27;;;;;;;5.60;2.17;;;;;;;;;;5058038;28;20037;-73
2022/08/05 04:09:53;;;;;;;3.75;1.75;;;;;;;;;;5061817;28;20031;-73
2022/08/05 04:12:19;;;;;;;5.55;2.30;;;;;;;;;;5044614;28;20048;-73
2022/08/05 04:14:45;;;;;;;4.15;2.33;;;;;;;;;;5060864;28;20028;-73
2022/08/05 04:17:11;;;;;;;3.65;1.75;;;;;;;;;;5057392;28;20073;-73
2022/08/05 04:19:41;;;;;;;5.10;2.35;;;;;;;;;;5063478;28;20081;-73
2022/08/05 04:22:07;;;;;;;3.25;1.63;;;;;;;;;;5061443;28;20036;-73
2022/08/05 04:24:33;;;;;;;4.28;1.73;;;;;;;;;;5054480;28;20837;-73
2022/08/05 04:26:59;;;;;;;7.45;2.10;;;;;;;;;;5067518;28;20039;-73
2022/08/05 04:29:25;;;;;;;4.75;2.20;;;;;;;;;;5067713;28;20025;-73
2022/08/05 04:31:51;;;;;;;4.00;2.13;;;;;;;;;;5064317;28;20025;-73
2022/08/05 04:34:17;;;;;;;4.82;1.88;;;;;;;;;;5048486;28;20098;-73
2022/08/05 04:36:43;;;;;;;5.75;1.88;;;;;;;;;;5066504;28;20044;-73
2022/08/05 04:39:09;;;;;;;4.85;2.20;;;;;;;;;;5062513;28;20032;-73
2022/08/05 04:41:35;;;;;;;6.07;2.22;;;;;;;;;;5064759;28;20032;-73
2022/08/05 04:44:01;;;;;;;5.72;2.15;;;;;;;;;;5063349;28;20040;-73
2022/08/05 04:46:28;;;;;;;3.63;1.90;;;;;;;;;;5065675;28;20473;-73
2022/08/05 04:48:54;;;;;;;5.00;2.25;;;;;;;;;;5063620;28;20027;-73
2022/08/05 04:51:20;;;;;;;4.45;1.90;;;;;;;;;;5064438;28;20033;-73
2022/08/05 04:53:46;;;;;;;3.03;1.80;;;;;;;;;;5059775;28;20029;-73
2022/08/05 04:56:13;;;;;;;3.75;1.73;;;;;;;;;;5065002;28;20063;-73
2022/08/05 04:58:39;;;;;;;3.90;2.05;;;;;;;;;;5067031;28;20537;-73
2022/08/05 05:01:05;;;;;;;4.72;2.10;;;;;;;;;;5056415;28;20484;-73
2022/08/05 05:03:31;;;;;;;5.20;2.13;;;;;;;;;;5063002;28;20086;-73
2022/08/05 05:05:57;;;;;;;4.82;2.28;;;;;;;;;;5061225;28;20070;-73
2022/08/05 05:08:23;;;;;;;3.38;1.95;;;;;;;;;;5065033;28;20028;-73
2022/08/05 05:10:49;;;;;;;5.00;2.42;;;;;;;;;;5061391;28;20040;-73
2022/08/05 05:13:16;;;;;;;6.15;2.47;;;;;;;;;;5063698;28;20504;-73
2022/08/05 05:15:43;;;;;;;7.05;2.10;;;;;;;;;;5065144;28;20045;-73
2022/08/05 05:18:12;;;;;;;4.18;2.05;;;;;;;;;;5065386;28;20025;-73
2022/08/05 05:20:38;;;;;;;8.73;2.60;;;;;;;;;;5064035;28;20060;-73
2022/08/05 05:23:04;;;;;;;6.35;2.70;;;;;;;;;;5062617;28;20445;-73
2022/08/05 05:25:30;;;;;;;5.43;2.38;;;;;;;;;;5065816;28;20107;-73
2022/08/05 05:27:57;;;;;;;5.20;2.17;;;;;;;;;;5063218;28;20645;-73
2022/08/05 05:30:23;;;;;;;5.22;2.60;;;;;;;;;;5062206;28;20496;-73
2022/08/05 05:32:49;;;;;;;5.90;2.42;;;;;;;;;;5044643;28;20028;-73
2022/08/05 05:35:15;;;;;;;6.70;2.65;;;;;;;;;;5065986;28;20029;-73
2022/08/05 05:37:56;;;;;;;4.97;2.10;;;;;;;;;;5063407;28;20060;-73
2022/08/05 05:40:23;;;;;;;5.32;2.50;;;;;;;;;;5063987;28;20044;-73
2022/08/05 05:42:49;;;;;;;4.35;2.30;;;;;;;;;;5065492;28;20036;-73
2022/08/05 05:45:16;;;;;;;6.65;2.22;;;;;;;;;;5062849;28;20464;-73
2022/08/05 05:47:42;;;;;;;9.13;2.55;;;;;;;;;;5062744;28;20061;-73
2022/08/05 05:50:09;;;;;;;7.32;2.22;;;;;;;;;;5061146;28;20035;-73
2022/08/05 05:52:35;;;;;;;6.78;2.17;;;;;;;;;;5062127;28;20056;-73
2022/08/05 05:55:03;;;;;;;6.00;2.25;;;;;;;;;;5055409;28;20082;-73
2022/08/05 05:57:29;;;;;;;4.90;2.20;;;;;;;;;;5064407;28;20040;-73
2022/08/05 05:59:55;;;;;;;9.10;2.30;;;;;;;;;;5062887;28;20036;-73
2022/08/05 06:02:21;;;;;;;6.78;2.13;;;;;;;;;;5062134;28;20039;-73
2022/08/05 06:04:47;;;;;;;9.98;2.30;;;;;;;;;;5061653;28;20115;-73
2022/08/05 06:07:13;;;;;;;9.07;2.20;;;;;;;;;;5063479;28;20038;-73
2022/08/05 06:09:39;;;;;;;9.77;2.30;;;;;;;;;;5062419;28;20530;-73
2022/08/05 06:12:05;;;;;;;6.32;2.30;;;;;;;;;;5058670;28;20039;-73
2022/08/05 06:14:32;;;;;;;7.97;2.00;;;;;;;;;;5063002;28;20543;-73
2022/08/05 06:16:58;;;;;;;4.68;1.95;;;;;;;;;;5060619;28;20037;-73
2022/08/05 06:19:25;;;;;;;5.25;2.20;;;;;;;;;;5054654;28;20110;-73
2022/08/05 06:21:51;;;;;;;5.43;1.45;;;;;;;;;;5058093;28;20037;-73
2022/08/05 06:24:17;;;;;;;8.45;2.17;;;;;;;;;;5055485;28;20432;-73
2022/08/05 06:26:43;;;;;;;3.78;2.05;;;;;;;;;;5054829;28;20351;-73
2022/08/05 06:29:09;;;;;;;4.00;1.90;;;;;;;;;;5059998;28;20469;-73
2022/08/05 06:31:36;;;;;;;5.32;2.15;;;;;;;;;;5057328;28;20031;-73
2022/08/05 06:34:02;;;;;;;4.10;1.90;;;;;;;;;;5058705;28;20029;-73
2022/08/05 06:36:28;;;;;;;5.80;1.92;;;;;;;;;;5061354;28;20366;-73
2022/08/05 06:38:54;;;;;;;3.95;1.60;;;;;;;;;;5061236;28;20450;-73
2022/08/05 06:41:23;;;;;;;5.32;1.73;;;;;;;;;;5055562;28;20036;-74
2022/08/05 06:43:49;;;;;;;8.48;2.58;;;;;;;;;;5057578;28;20081;-73
2022/08/05 06:46:15;;;;;;;7.95;2.40;;;;;;;;;;5061502;28;20044;-73
2022/08/05 06:48:41;;;;;;;4.07;2.08;;;;;;;;;;5062048;28;20036;-73
2022/08/05 06:51:07;;;;;;;5.03;2.00;;;;;;;;;;5057870;28;20036;-73
2022/08/05 06:53:34;;;;;;;6.78;2.00;;;;;;;;;;5063795;28;20386;-73
2022/08/05 06:56:02;;;;;;;11.73;2.15;;;;;;;;;;5055780;28;20033;-73
2022/08/05 06:58:28;;;;;;;5.00;2.33;;;;;;;;;;5057366;28;20039;-73
2022/08/05 07:00:54;;;;;;;6.28;1.88;;;;;;;;;;5060258;28;20033;-73
2022/08/05 07:03:20;;;;;;;6.35;2.05;;;;;;;;;;5044209;28;20134;-73
2022/08/05 07:05:46;;;;;;;5.35;1.98;;;;;;;;;;5061061;28;20400;-73
2022/08/05 07:08:13;;;;;;;7.55;2.05;;;;;;;;;;5061447;28;20032;-73
2022/08/05 07:10:39;;;;;;;7.43;2.72;;;;;;;;;;5060771;28;20040;-73
2022/08/05 07:18:34;;;;;;;7.30;2.10;;;;;;;;;;5053186;28;20150;-73
2022/08/05 07:21:01;;;;;;;9.65;1.90;;;;;;;;;;5053974;28;20476;-73
2022/08/05 07:23:27;;;;;;;9.15;2.30;;;;;;;;;;5057453;28;20036;-73
2022/08/05 07:25:54;;;;;;;9.07;2.22;;;;;;;;;;5055954;28;20061;-73
2022/08/05 07:28:20;;;;;;;11.75;2.38;;;;;;;;;;5058734;28;20085;-74
2022/08/05 07:30:46;;;;;;;3.55;2.35;;;;;;;;;;5059208;28;20075;-73
2022/08/05 07:33:12;;;;;;;7.32;1.98;;;;;;;;;;5057276;28;20035;-73
2022/08/05 07:35:38;;;;;;;7.78;2.92;;;;;;;;;;5054869;28;20028;-73
2022/08/05 07:38:04;;;;;;;6.63;2.38;;;;;;;;;;5055994;28;20036;-73
2022/08/05 07:40:30;;;;;;;9.10;2.60;;;;;;;;;;5056633;28;20052;-73
2022/08/05 07:42:56;;;;;;;14.45;2.45;;;;;;;;;;5056111;28;20032;-73
2022/08/05 07:45:23;;;;;;;4.72;2.33;;;;;;;;;;5049174;28;20051;-73
2022/08/05 07:47:49;;;;;;;7.65;2.72;;;;;;;;;;5059696;28;20086;-74
2022/08/05 07:50:15;;;;;;;5.13;2.30;;;;;;;;;;5053429;28;20026;-73
2022/08/05 07:52:42;;;;;;;6.95;2.00;;;;;;;;;;5054788;28;20055;-73
2022/08/05 07:55:08;;;;;;;3.35;2.13;;;;;;;;;;5058826;28;20466;-73
2022/08/05 07:57:35;;;;;;;6.55;2.70;;;;;;;;;;5057311;28;20036;-73
2022/08/05 08:00:01;;;;;;;7.68;2.45;;;;;;;;;;5058846;28;20833;-74
2022/08/05 08:02:28;;;;;;;7.38;2.35;;;;;;;;;;5058687;28;20033;-73
2022/08/05 08:04:54;;;;;;;4.53;2.28;;;;;;;;;;5060160;28;20040;-74
2022/08/05 08:07:21;;;;;;;5.05;2.50;;;;;;;;;;5059275;28;20047;-73
2022/08/05 08:09:47;;;;;;;7.03;2.10;;;;;;;;;;5059919;28;20847;-73
2022/08/05 08:12:14;;;;;;;4.80;2.00;;;;;;;;;;5055149;28;20064;-73
2022/08/05 08:14:40;;;;;;;3.65;2.20;;;;;;;;;;5056622;28;20031;-74
2022/08/05 08:17:12;;;;;;;5.20;2.25;;;;;;;;;;5057680;28;20086;-73
2022/08/05 08:19:38;;;;;;;9.55;2.30;;;;;;;;;;5055812;28;20120;-73
2022/08/05 08:22:05;;;;;;;5.72;1.90;;;;;;;;;;5058109;28;20060;-73
2022/08/05 08:24:31;;;;;;;6.63;2.03;;;;;;;;;;5058941;28;20568;-74
2022/08/05 08:26:58;;;;;;;21.85;2.05;;;;;;;;;;5057673;28;20108;-73
2022/08/05 08:29:24;;;;;;;11.32;2.10;;;;;;;;;;5056999;28;20492;-74
2022/08/05 08:31:50;;;;;;;6.10;2.20;;;;;;;;;;5059157;28;20481;-73
2022/08/05 08:34:17;;;;;;;8.13;1.83;;;;;;;;;;5056519;28;20551;-74
2022/08/05 08:36:43;;;;;;;9.70;1.90;;;;;;;;;;5049527;28;20047;-74
2022/08/05 08:39:09;;;;;;;7.68;1.92;;;;;;;;;;5055352;28;20029;-74
2022/08/05 08:41:37;;;;;;;8.20;1.98;;;;;;;;;;5054014;28;20037;-74
2022/08/05 08:44:04;;;;;;;8.55;2.28;;;;;;;;;;5058030;28;20055;-74
2022/08/05 08:46:31;;;;;;;7.60;2.38;;;;;;;;;;5062583;28;20044;-74
2022/08/05 08:48:58;;;;;;;7.30;2.30;;;;;;;;;;5058076;28;20835;-73
2022/08/05 08:51:27;;;;;;;8.05;1.95;;;;;;;;;;5057473;28;20107;-74
2022/08/05 08:53:53;;;;;;;3.35;1.55;;;;;;;;;;5056739;28;20032;-74
2022/08/05 08:56:20;;;;;;;3.60;1.58;;;;;;;;;;5056758;28;20044;-73
2022/08/05 08:58:46;;;;;;;3.85;1.73;;;;;;;;;;5057919;28;20032;-74
2022/08/05 09:01:12;;;;;;;9.80;1.77;;;;;;;;;;5056786;28;20029;-74
2022/08/05 09:03:40;;;;;;;11.73;1.85;;;;;;;;;;5054069;28;20128;-74
2022/08/05 09:06:06;;;;;;;8.75;1.73;;;;;;;;;;5055207;28;20040;-73
2022/08/05 09:08:32;;;;;;;9.02;1.83;;;;;;;;;;5061585;28;20044;-73
2022/08/05 09:10:58;;;;;;;5.80;2.10;;;;;;;;;;5058529;28;20063;-73
2022/08/05 09:13:24;;;;;;;5.72;1.70;;;;;;;;;;5060505;28;20033;-73
2022/08/05 09:15:51;;;;;;;11.82;2.20;;;;;;;;;;5062618;28;20032;-73
2022/08/05 09:18:17;;;;;;;7.07;1.63;;;;;;;;;;5063012;28;20036;-73
2022/08/05 09:20:46;;;;;;;2.90;1.60;;;;;;;;;;5059994;28;20029;-73
2022/08/05 09:23:16;;;;;;;4.60;1.90;;;;;;;;;;5057188;28;20055;-73
2022/08/05 09:25:46;;;;;;;4.68;1.90;;;;;;;;;;5063504;28;20056;-73
2022/08/05 09:28:23;;;;;;;6.38;1.90;;;;;;;;;;5063227;28;20048;-73
2022/08/05 09:30:53;;;;;;;6.85;1.77;;;;;;;;;;5056999;28;20078;-74
2022/08/05 09:33:19;;;;;;;5.38;1.90;;;;;;;;;;5056608;28;20035;-73
2022/08/05 09:35:58;;;;;;;3.72;1.63;;;;;;;;;;5062574;28;20033;-73
2022/08/05 09:38:24;;;;;;;6.47;2.15;;;;;;;;;;5061863;28;20032;-74
2022/08/05 09:40:51;;;;;;;6.30;1.80;;;;;;;;;;5060591;28;20470;-74
2022/08/05 09:43:28;;;;;;;6.82;1.70;;;;;;;;;;5057206;28;20036;-73
2022/08/05 09:45:54;;;;;;;9.07;1.95;;;;;;;;;;5057465;28;20033;-73
2022/08/05 09:48:20;;;;;;;8.65;2.00;;;;;;;;;;5059092;28;20040;-74
2022/08/05 09:50:50;;;;;;;4.05;2.00;;;;;;;;;;5059170;28;20029;-74
2022/08/05 09:53:16;;;;;;;6.72;2.15;;;;;;;;;;5060330;28;20025;-74
2022/08/05 09:55:42;;;;;;;7.53;1.50;;;;;;;;;;5055613;28;20813;-73
2022/08/05 09:58:15;;;;;;;4.60;1.70;;;;;;;;;;5061303;28;20521;-73
2022/08/05 10:00:55;;;;;;;3.83;2.00;;;;;;;;;;5058447;28;20032;-73
2022/08/05 10:03:21;;;;;;;3.53;1.65;;;;;;;;;;5059533;28;20033;-74
2022/08/05 10:05:59;;;;;;;4.68;1.55;;;;;;;;;;5060772;28;20036;-74
2022/08/05 10:08:25;;;;;;;6.72;1.80;;;;;;;;;;5060879;28;20098;-74
2022/08/05 10:10:51;;;;;;;3.70;1.48;;;;;;;;;;5061587;28;20085;-73
2022/08/05 10:13:26;;;;;;;4.72;1.70;;;;;;;;;;5059040;28;20028;-74
2022/08/05 10:15:54;;;;;;;5.72;1.90;;;;;;;;;;5058916;28;20143;-74
2022/08/05 10:18:24;;;;;;;3.70;1.73;;;;;;;;;;5060801;28;20115;-73
2022/08/05 10:20:50;;;;;;;7.05;2.00;;;;;;;;;;5058836;28;20029;-73
2022/08/05 10:23:21;;;;;;;5.53;1.70;;;;;;;;;;5057445;28;20105;-73
2022/08/05 10:25:47;;;;;;;3.08;1.65;;;;;;;;;;5057230;28;20033;-74
2022/08/05 10:28:13;;;;;;;4.28;1.70;;;;;;;;;;5059623;28;20040;-74
2022/08/05 10:30:39;;;;;;;7.25;1.63;;;;;;;;;;5057213;28;20032;-74
2022/08/05 10:33:07;;;;;;;7.47;1.80;;;;;;;;;;5057963;28;20051;-74
2022/08/05 10:35:33;;;;;;;4.00;1.67;;;;;;;;;;5062132;28;20075;-73
2022/08/05 10:38:00;;;;;;;2.65;1.48;;;;;;;;;;5061028;28;20127;-73
2022/08/05 10:40:32;;;;;;;5.88;2.00;;;;;;;;;;5060942;28;20064;-73
2022/08/05 10:43:01;;;;;;;2.65;1.30;;;;;;;;;;5059479;28;20032;-73
2022/08/05 10:45:29;;;;;;;5.20;1.63;;;;;;;;;;5058066;28;20033;-74
2022/08/05 10:47:55;;;;;;;3.40;1.80;;;;;;;;;;5054487;28;20412;-74
2022/08/05 10:50:22;;;;;;;4.15;1.98;;;;;;;;;;5056411;28;20028;-73
2022/08/05 10:52:55;;;;;;;5.00;1.45;;;;;;;;;;5057629;28;20029;-74
2022/08/05 10:55:22;;;;;;;3.25;1.75;;;;;;;;;;5059118;28;20034;-74
2022/08/05 10:57:48;;;;;;;7.53;1.58;;;;;;;;;;5059254;28;20039;-73
2022/08/05 11:00:15;;;;;;;4.45;1.40;;;;;;;;;;5060131;28;20033;-74
2022/08/05 11:03:11;;;;;;;5.03;1.80;;;;;;;;;;5058159;28;20054;-74
2022/08/05 11:05:38;;;;;;;5.47;1.60;;;;;;;;;;5057877;28;20051;-74
2022/08/05 11:08:09;;;;;;;4.57;1.50;;;;;;;;;;5059568;28;20031;-73
2022/08/05 11:10:36;;;;;;;4.35;1.60;;;;;;;;;;5061006;28;20033;-74
2022/08/05 11:13:03;;;;;;;6.53;1.85;;;;;;;;;;5054133;28;20023;-74
2022/08/05 11:15:31;;;;;;;4.00;1.20;;;;;;;;;;5056005;28;20086;-74
2022/08/05 11:18:06;;;;;;;4.55;1.48;;;;;;;;;;5061997;28;20028;-73
2022/08/05 11:20:46;;;;;;;3.58;1.50;;;;;;;;;;5056658;28;20052;-74
2022/08/05 11:23:31;;;;;;;5.15;1.25;;;;;;;;;;5055691;28;20036;-74
2022/08/05 11:26:07;;;;;;;4.65;1.33;;;;;;;;;;5061013;28;20039;-74
2022/08/05 11:28:33;;;;;;;3.25;1.20;;;;;;;;;;5052033;28;20029;-74
2022/08/05 11:31:02;;;;;;;2.30;1.17;;;;;;;;;;5053137;28;20569;-74
2022/08/05 11:33:28;;;;;;;2.88;1.30;;;;;;;;;;5059562;28;20021;-74
2022/08/05 11:35:54;;;;;;;2.55;1.30;;;;;;;;;;5057336;28;20056;-74
2022/08/05 11:38:40;;;;;;;4.30;1.42;;;;;;;;;;5056377;28;20040;-74
2022/08/05 11:41:07;;;;;;;2.85;1.35;;;;;;;;;;5053706;28;20036;-74
2022/08/05 11:43:33;;;;;;;8.05;1.35;;;;;;;;;;5057962;28;20036;-74
2022/08/05 11:46:00;;;;;;;4.00;1.27;;;;;;;;;;5061048;28;20064;-74
2022/08/05 11:48:27;;;;;;;2.30;1.20;;;;;;;;;;5052623;28;20744;-74
2022/08/05 11:50:53;;;;;;;3.42;1.30;;;;;;;;;;5057316;28;20037;-74
2022/08/05 11:53:20;;;;;;;2.60;1.13;;;;;;;;;;5061120;28;20447;-74
2022/08/05 11:56:13;;;;;;;3.38;1.27;;;;;;;;;;5062023;28;20089;-74
2022/08/05 11:58:40;;;;;;;3.70;1.27;;;;;;;;;;5051868;28;20045;-73
2022/08/05 12:01:07;;;;;;;3.45;1.30;;;;;;;;;;5058787;28;20064;-74
2022/08/05 12:03:43;;;;;;;4.40;1.50;;;;;;;;;;5059576;28;20029;-74
2022/08/05 12:06:09;;;;;;;2.20;1.38;;;;;;;;;;5053910;28;20068;-74
2022/08/05 12:08:43;;;;;;;4.20;1.52;;;;;;;;;;5058958;28;20025;-74
2022/08/05 12:11:10;;;;;;;3.47;1.40;;;;;;;;;;5058825;28;20466;-74
2022/08/05 12:13:37;;;;;;;3.72;1.63;;;;;;;;;;5056524;28;20032;-74
2022/08/05 12:16:07;;;;;;;2.75;1.40;;;;;;;;;;5057634;28;20032;-74
2022/08/05 12:18:34;;;;;;;4.18;1.77;;;;;;;;;;5056573;28;20187;-74
2022/08/05 12:21:10;;;;;;;4.22;1.48;;;;;;;;;;5055978;28;20037;-74
2022/08/05 12:23:36;;;;;;;2.78;1.33;;;;;;;;;;5059318;28;20025;-74
2022/08/05 12:26:02;;;;;;;3.95;1.45;;;;;;;;;;5054455;28;20032;-74
2022/08/05 12:28:35;;;;;;;6.32;1.70;;;;;;;;;;5054285;28;20082;-74
2022/08/05 12:31:02;;;;;;;3.17;1.50;;;;;;;;;;5052298;28;20071;-74
2022/08/05 12:33:28;;;;;;;3.58;1.50;;;;;;;;;;5058194;28;20454;-74
2022/08/05 12:35:55;;;;;;;4.03;1.70;;;;;;;;;;5054504;28;20036;-74
2022/08/05 12:38:22;;;;;;;2.33;1.17;;;;;;;;;;5057656;28;20037;-74
2022/08/05 12:40:48;;;;;;;4.30;1.50;;;;;;;;;;5059775;28;20047;-74
2022/08/05 12:43:15;;;;;;;4.47;1.50;;;;;;;;;;5057840;28;20032;-74
2022/08/05 12:45:54;;;;;;;6.88;1.40;;;;;;;;;;5058093;28;20068;-74
2022/08/05 12:48:21;;;;;;;3.63;1.30;;;;;;;;;;5061014;28;20040;-74
2022/08/05 12:51:05;;;;;;;3.33;1.23;;;;;;;;;;5058911;28;20468;-74
2022/08/05 12:53:31;;;;;;;7.60;1.63;;;;;;;;;;5063929;28;20028;-74
2022/08/05 12:55:57;;;;;;;2.65;1.30;;;;;;;;;;5057360;28;20036;-74
2022/08/05 12:58:23;;;;;;;4.15;1.42;;;;;;;;;;5056637;28;20484;-74
2022/08/05 13:00:50;;;;;;;3.45;1.40;;;;;;;;;;5058210;28;20041;-74
2022/08/05 13:03:16;;;;;;;2.95;1.40;;;;;;;;;;5057769;28;20025;-74
2022/08/05 13:05:42;;;;;;;3.80;1.23;;;;;;;;;;5056526;28;20040;-74
2022/08/05 13:08:08;;;;;;;2.92;1.50;;;;;;;;;;5062033;28;20119;-74
2022/08/05 13:10:41;;;;;;;2.63;1.50;;;;;;;;;;5062200;28;20067;-74
2022/08/05 13:13:07;;;;;;;4.32;1.38;;;;;;;;;;5060978;28;20111;-74
2022/08/05 13:15:33;;;;;;;5.55;1.48;;;;;;;;;;5056646;28;20390;-74
2022/08/05 13:17:59;;;;;;;3.25;1.13;;;;;;;;;;5058413;28;20032;-74
2022/08/05 13:20:33;;;;;;;7.20;1.55;;;;;;;;;;5055591;28;20056;-74
2022/08/05 13:22:59;;;;;;;3.40;1.27;;;;;;;;;;5058390;28;20541;-74
2022/08/05 13:25:26;;;;;;;4.15;1.35;;;;;;;;;;5055161;28;20063;-75
2022/08/05 13:27:53;;;;;;;6.72;1.42;;;;;;;;;;5062704;28;20513;-74
2022/08/05 13:30:20;;;;;;;2.08;1.20;;;;;;;;;;5061977;28;20028;-74
2022/08/05 13:32:47;;;;;;;3.42;1.10;;;;;;;;;;5061048;28;20116;-74
2022/08/05 13:35:14;;;;;;;3.35;1.38;;;;;;;;;;5060263;28;20024;-74
2022/08/05 13:37:40;;;;;;;2.92;1.55;;;;;;;;;;5063536;28;20088;-74
2022/08/05 13:40:06;;;;;;;4.18;1.88;;;;;;;;;;5059199;28;20028;-74
2022/08/05 13:42:32;;;;;;;5.00;1.40;;;;;;;;;;5060567;28;20072;-74
2022/08/05 13:44:58;;;;;;;5.38;1.80;;;;;;;;;;5063598;28;20365;-74
2022/08/05 13:47:25;;;;;;;3.03;1.20;;;;;;;;;;5059223;28;20040;-74
2022/08/05 13:49:51;;;;;;;2.53;1.30;;;;;;;;;;5059986;28;20021;-74
2022/08/05 13:52:25;;;;;;;4.15;1.55;;;;;;;;;;5057724;28;20074;-74
2022/08/05 13:54:51;;;;;;;3.63;1.33;;;;;;;;;;5059909;28;20016;-74
2022/08/05 13:57:17;;;;;;;10.45;1.55;;;;;;;;;;5062201;28;21983;-74
2022/08/05 13:59:43;;;;;;;5.28;1.90;;;;;;;;;;5061001;28;20051;-74
2022/08/05 14:02:11;;;;;;;4.13;1.60;;;;;;;;;;5058891;28;20102;-74
2022/08/05 14:07:25;;;;;;;4.05;1.50;;;;;;;;;;5057767;28;20529;-74
2022/08/05 14:09:51;;;;;;;3.40;1.50;;;;;;;;;;5057729;28;20107;-74
2022/08/05 14:12:17;;;;;;;4.57;1.70;;;;;;;;;;5061027;28;20036;-74
2022/08/05 14:14:43;;;;;;;3.20;1.40;;;;;;;;;;5052417;28;20773;-74
2022/08/05 14:17:09;;;;;;;4.88;1.60;;;;;;;;;;5055235;28;20048;-74
2022/08/05 14:19:35;;;;;;;3.33;1.40;;;;;;;;;;5058855;28;20048;-74
2022/08/05 14:22:01;;;;;;;3.45;1.33;;;;;;;;;;5058518;28;20040;-74
2022/08/05 14:24:27;;;;;;;6.45;1.95;;;;;;;;;;5059773;28;20028;-74
2022/08/05 14:26:53;;;;;;;3.80;1.77;;;;;;;;;;5061554;28;20399;-74
2022/08/05 14:29:19;;;;;;;2.80;1.40;;;;;;;;;;5059714;28;20028;-74
2022/08/05 14:31:45;;;;;;;3.25;1.25;;;;;;;;;;5056636;28;20075;-75
2022/08/05 14:34:11;;;;;;;5.57;1.83;;;;;;;;;;5055532;28;20429;-74
2022/08/05 14:36:37;;;;;;;6.50;1.67;;;;;;;;;;5056509;28;20042;-74
2022/08/05 14:39:04;;;;;;;4.95;1.80;;;;;;;;;;5062375;28;20115;-74
2022/08/05 14:41:30;;;;;;;3.83;1.70;;;;;;;;;;5054316;28;20037;-74
2022/08/05 14:43:56;;;;;;;5.18;1.33;;;;;;;;;;5057664;28;20082;-74
2022/08/05 14:46:26;;;;;;;2.55;1.40;;;;;;;;;;5058489;28;20538;-74
2022/08/05 14:48:52;;;;;;;3.40;1.60;;;;;;;;;;5059669;28;20915;-74
2022/08/05 14:51:18;;;;;;;6.10;1.75;;;;;;;;;;5060654;28;20082;-74
2022/08/05 14:53:45;;;;;;;4.80;1.92;;;;;;;;;;5058577;28;20037;-74